Time;durP1;ratioP1;P1;durP2;ratioP2;P2;SDS_P1;SDS_P2;PMS_P1;PMS_P2;Temp;Humidity;BMP_temperature;BMP_pressure;BME280_temperature;BME280_humidity;BME280_pressure;Samples;Min_cycle;Max_cycle;Signal;HPM_P1;HPM_P2
2023/01/02 00:02:28;;;;;;;3.23;3.03;;;7.10;99.90;;;7.84;100.00;98149.78;5153941;28;20251;-64
2023/01/02 00:05:04;;;;;;;3.20;2.90;;;7.20;99.90;;;7.94;100.00;98136.09;5151852;28;20227;-63
2023/01/02 00:07:37;;;;;;;3.20;3.00;;;7.30;99.90;;;8.03;100.00;98134.19;5154211;28;20658;-64
2023/01/02 00:10:10;;;;;;;3.00;2.70;;;7.50;99.90;;;8.20;100.00;98130.28;5155057;28;20211;-65
2023/01/02 00:12:43;;;;;;;3.93;3.33;;;7.60;99.90;;;8.32;100.00;98121.84;5152542;28;20293;-65
2023/01/02 00:15:16;;;;;;;3.30;3.00;;;7.80;99.90;;;8.44;100.00;98109.13;5148060;28;20282;-63
2023/01/02 00:17:49;;;;;;;2.47;2.33;;;7.90;99.90;;;8.55;100.00;98115.81;5155417;28;20663;-63
2023/01/02 00:20:24;;;;;;;3.60;3.30;;;8.00;99.90;;;8.67;100.00;98110.72;5153550;28;20298;-63
2023/01/02 00:22:57;;;;;;;3.03;2.80;;;8.00;99.90;;;8.68;100.00;98112.47;5150594;28;20322;-62
2023/01/02 00:25:33;;;;;;;7.15;2.85;;;8.00;99.90;;;8.57;100.00;98108.28;5153066;28;20278;-63
2023/01/02 00:28:06;;;;;;;3.00;2.70;;;7.90;99.90;;;8.52;100.00;98107.97;5153945;28;20270;-63
2023/01/02 00:30:39;;;;;;;2.63;2.42;;;7.90;99.90;;;8.60;100.00;98103.41;5159926;28;20284;-63
2023/01/02 00:33:12;;;;;;;3.63;2.67;;;7.90;99.90;;;8.59;100.00;98105.88;5157826;28;20238;-64
2023/01/02 00:35:47;;;;;;;3.17;2.88;;;8.00;99.90;;;8.64;100.00;98100.31;5154929;28;20663;-64
2023/01/02 00:38:20;;;;;;;3.47;3.17;;;8.00;99.90;;;8.65;100.00;98102.06;5156632;28;20558;-64
2023/01/02 00:40:53;;;;;;;5.22;4.50;;;8.00;99.90;;;8.75;100.00;98109.53;5153320;28;20651;-62
2023/01/02 00:43:26;;;;;;;5.40;4.90;;;8.00;99.90;;;8.54;100.00;98100.44;5155023;28;20341;-63
2023/01/02 00:45:59;;;;;;;6.72;5.28;;;7.80;99.90;;;8.47;100.00;98095.69;5152926;28;20296;-64
2023/01/02 00:48:40;;;;;;;7.15;5.70;;;7.60;99.90;;;8.42;100.00;98103.03;5157608;28;20294;-64
2023/01/02 00:51:14;;;;;;;6.30;5.57;;;7.60;99.90;;;8.33;100.00;98092.19;5160045;28;20727;-64
2023/01/02 00:53:47;;;;;;;5.50;5.07;;;7.50;99.90;;;8.23;100.00;98087.22;5154484;28;20640;-62
2023/01/02 00:56:21;;;;;;;5.68;5.18;;;7.40;99.90;;;8.31;100.00;98093.72;5152981;28;20250;-65
2023/01/02 00:58:54;;;;;;;4.63;4.22;;;7.50;99.90;;;8.16;100.00;98088.47;5152933;28;20199;-65
2023/01/02 01:01:27;;;;;;;4.40;3.63;;;7.40;99.90;;;8.07;100.00;98087.81;5155814;28;20203;-64
2023/01/02 01:04:01;;;;;;;3.80;3.50;;;7.40;99.90;;;8.16;100.00;98087.59;5155193;28;20306;-62
2023/01/02 01:06:35;;;;;;;5.32;4.70;;;7.50;99.90;;;8.25;100.00;98090.75;5152693;28;20294;-64
2023/01/02 01:09:08;;;;;;;4.70;4.30;;;7.50;99.90;;;8.15;100.00;98090.88;5157941;28;20669;-64
2023/01/02 01:11:41;;;;;;;4.75;3.83;;;7.40;99.90;;;8.05;100.00;98095.34;5159497;28;20206;-63
2023/01/02 01:14:14;;;;;;;5.15;4.53;;;7.30;99.90;;;7.97;100.00;98096.47;5154789;28;20358;-64
2023/01/02 01:16:48;;;;;;;4.63;4.22;;;7.20;99.90;;;7.92;100.00;98097.78;5157409;28;20234;-63
2023/01/02 01:19:21;;;;;;;4.60;4.30;;;7.20;99.90;;;7.79;100.00;98095.16;5156906;28;20203;-64
2023/01/02 01:21:55;;;;;;;4.33;3.93;;;7.10;99.90;;;7.73;100.00;98099.81;5150944;28;20313;-64
2023/01/02 01:24:29;;;;;;;4.20;3.80;;;7.10;99.90;;;7.75;100.00;98090.59;5152834;28;20273;-63
2023/01/02 01:27:02;;;;;;;4.47;4.07;;;7.00;99.90;;;7.64;100.00;98090.75;5153147;28;20246;-63
2023/01/02 01:29:35;;;;;;;4.30;4.00;;;7.00;99.90;;;7.67;100.00;98098.59;5155097;28;20262;-64
2023/01/02 01:32:08;;;;;;;5.73;3.63;;;7.00;99.90;;;7.74;100.00;98088.84;5157592;28;20640;-63
2023/01/02 01:34:42;;;;;;;4.00;3.70;;;7.00;99.90;;;7.72;100.00;98098.91;5156161;28;20266;-63
2023/01/02 01:37:16;;;;;;;5.10;3.93;;;7.00;99.90;;;7.75;100.00;98099.13;5154667;28;20212;-64
2023/01/02 01:39:49;;;;;;;4.47;4.07;;;7.10;99.90;;;7.79;100.00;98103.69;5153697;28;20262;-63
2023/01/02 01:42:33;;;;;;;4.50;3.80;;;7.10;99.90;;;7.78;100.00;98094.25;5155303;28;20234;-64
2023/01/02 01:45:17;;;;;;;3.77;3.47;;;7.10;99.90;;;7.83;100.00;98104.78;5150753;28;20229;-63
2023/01/02 01:47:55;;;;;;;4.77;3.70;;;7.10;99.90;;;7.83;100.00;98104.78;5154578;28;20261;-63
2023/01/02 01:50:31;;;;;;;3.60;3.03;;;7.10;99.90;;;7.76;100.00;98098.38;5159151;28;20277;-64
2023/01/02 01:53:11;;;;;;;3.67;3.40;;;7.10;99.90;;;7.80;100.00;98102.00;5160164;28;20641;-64
2023/01/02 01:55:50;;;;;;;3.27;3.03;;;7.10;99.90;;;7.78;100.00;98093.38;5160071;28;20211;-63
2023/01/02 01:58:28;;;;;;;3.20;2.77;;;7.10;99.90;;;7.84;100.00;98093.81;5158442;28;20214;-64
2023/01/02 02:01:03;;;;;;;2.80;2.60;;;7.20;99.90;;;7.84;100.00;98098.91;5159365;28;20305;-63
2023/01/02 02:03:37;;;;;;;3.20;3.00;;;7.20;99.90;;;7.89;100.00;98095.03;5156153;28;20317;-63
2023/01/02 02:06:11;;;;;;;3.97;3.57;;;7.20;99.90;;;7.92;100.00;98107.97;5160061;28;20256;-63
2023/01/02 02:08:52;;;;;;;3.30;3.10;;;7.20;99.90;;;7.88;100.00;98103.44;5158342;28;20689;-63
2023/01/02 02:11:26;;;;;;;3.37;3.17;;;7.10;99.90;;;7.81;100.00;98101.22;5156127;28;20661;-65
2023/01/02 02:14:01;;;;;;;3.57;3.27;;;7.00;99.90;;;7.75;100.00;98106.75;5149922;28;20645;-64
2023/01/02 02:16:41;;;;;;;3.83;3.10;;;7.00;99.90;;;7.63;100.00;98099.13;5157052;28;20358;-64
2023/01/02 02:20:16;;;;;;;3.77;3.47;;;6.90;99.90;;;7.60;100.00;98108.22;5156753;28;20210;-64
2023/01/02 02:23:42;;;;;;;3.93;3.50;;;6.90;99.90;;;7.60;100.00;98110.75;5157942;28;20229;-63
2023/01/02 02:27:01;;;;;;;4.23;3.93;;;6.80;99.90;;;7.52;100.00;98105.09;5157707;28;20206;-63
2023/01/02 02:30:12;;;;;;;3.97;3.53;;;6.80;99.90;;;7.49;100.00;98098.91;5158330;28;20330;-63
2023/01/02 02:33:17;;;;;;;4.60;4.10;;;6.70;99.90;;;7.52;100.00;98094.91;5152178;28;20207;-63
2023/01/02 02:36:02;;;;;;;4.17;3.57;;;6.70;99.90;;;7.44;100.00;98099.47;5158454;28;20282;-63
2023/01/02 02:38:58;;;;;;;4.83;3.47;;;6.70;99.90;;;7.40;100.00;98086.41;5150840;28;20207;-63
2023/01/02 02:41:35;;;;;;;3.77;3.47;;;6.60;99.90;;;7.33;100.00;98086.75;5157821;28;20621;-63
2023/01/02 02:44:23;;;;;;;4.37;3.73;;;6.60;99.90;;;7.34;100.00;98083.44;5156549;28;20218;-64
2023/01/02 02:47:03;;;;;;;4.07;3.77;;;6.60;99.90;;;7.30;100.00;98071.28;5160030;28;20638;-65
2023/01/02 02:49:48;;;;;;;4.63;4.13;;;6.60;99.90;;;7.30;100.00;98081.44;5159844;28;20203;-63
2023/01/02 02:52:27;;;;;;;4.87;4.47;;;6.60;99.90;;;7.30;100.00;98074.69;5151837;28;20258;-64
2023/01/02 02:55:05;;;;;;;4.07;3.23;;;6.60;99.90;;;7.30;100.00;98076.38;5156050;28;20223;-64
2023/01/02 02:57:40;;;;;;;4.27;3.23;;;6.60;99.90;;;7.33;100.00;98076.59;5158955;28;20689;-63
2023/01/02 03:00:18;;;;;;;4.93;4.07;;;6.60;99.90;;;7.33;100.00;98066.41;5158863;28;20242;-64
2023/01/02 03:02:53;;;;;;;4.87;4.33;;;6.50;99.90;;;7.35;100.00;98067.38;5158745;28;20750;-61
2023/01/02 03:05:33;;;;;;;5.27;4.37;;;6.50;99.90;;;7.33;100.00;98071.50;5159999;28;20582;-63
2023/01/02 03:08:16;;;;;;;4.73;4.30;;;6.50;99.90;;;7.29;100.00;98069.50;5160664;28;20234;-63
2023/01/02 03:10:57;;;;;;;4.90;4.50;;;6.50;99.90;;;7.23;100.00;98064.84;5157491;28;20298;-63
2023/01/02 03:13:43;;;;;;;4.40;4.00;;;6.50;99.90;;;7.20;100.00;98060.41;5156083;28;20258;-63
2023/01/02 03:16:23;;;;;;;4.67;4.27;;;6.50;99.90;;;7.21;100.00;98062.22;5152625;28;20203;-63
2023/01/02 03:19:06;;;;;;;4.37;3.97;;;6.50;99.90;;;7.24;100.00;98059.00;5159197;28;20199;-62
2023/01/02 03:21:44;;;;;;;4.43;4.10;;;6.50;99.90;;;7.21;100.00;98067.28;5156841;28;20234;-64
2023/01/02 03:24:21;;;;;;;3.83;3.53;;;6.50;99.90;;;7.24;100.00;98061.56;5161167;28;20288;-62
2023/01/02 03:26:59;;;;;;;4.07;3.77;;;6.50;99.90;;;7.27;100.00;98073.56;5158061;28;20321;-62
2023/01/02 03:29:37;;;;;;;4.80;3.70;;;6.50;99.90;;;7.29;100.00;98069.50;5159897;28;20663;-63
2023/01/02 03:32:17;;;;;;;4.47;3.93;;;6.50;99.90;;;7.26;100.00;98075.22;5154955;28;20242;-63
2023/01/02 03:34:53;;;;;;;3.87;3.57;;;6.50;99.90;;;7.23;100.00;98065.72;5158326;28;20667;-64
2023/01/02 03:37:31;;;;;;;3.63;3.33;;;6.50;99.90;;;7.23;100.00;98065.72;5156581;28;20199;-63
2023/01/02 03:40:11;;;;;;;4.73;3.50;;;6.50;99.90;;;7.26;100.00;98064.19;5158921;28;20300;-63
2023/01/02 03:42:50;;;;;;;4.53;3.50;;;6.50;99.90;;;7.25;100.00;98062.44;5157918;28;20247;-65
2023/01/02 03:45:28;;;;;;;3.83;2.87;;;6.50;99.90;;;7.26;100.00;98059.09;5157405;28;20210;-62
2023/01/02 03:48:09;;;;;;;3.50;3.20;;;6.60;99.90;;;7.30;100.00;98063.66;5155542;28;20223;-64
2023/01/02 03:50:49;;;;;;;3.47;3.27;;;6.60;99.90;;;7.29;100.00;98060.19;5155958;28;20261;-64
2023/01/02 03:53:24;;;;;;;3.43;3.23;;;6.60;99.90;;;7.30;100.00;98059.44;5155905;28;20663;-63
2023/01/02 03:56:13;;;;;;;3.53;2.83;;;6.60;99.90;;;7.32;100.00;98064.63;5159198;28;20294;-61
2023/01/02 03:58:53;;;;;;;3.60;3.20;;;6.60;99.90;;;7.38;100.00;98067.59;5159160;28;20679;-64
2023/01/02 04:01:34;;;;;;;4.77;3.40;;;6.60;99.90;;;7.37;100.00;98069.28;5154816;28;20290;-63
2023/01/02 04:04:16;;;;;;;4.93;3.50;;;6.50;99.90;;;7.23;100.00;98067.38;5153696;28;20223;-64
2023/01/02 04:06:58;;;;;;;3.90;3.50;;;6.40;99.90;;;7.25;100.00;98067.50;5154937;28;20290;-62
2023/01/02 04:09:35;;;;;;;4.23;3.83;;;6.40;99.90;;;7.19;100.00;98071.38;5153875;28;20195;-62
2023/01/02 04:12:12;;;;;;;4.77;3.67;;;6.40;99.90;;;7.07;100.00;98078.09;5160318;28;22227;-63
2023/01/02 04:14:50;;;;;;;4.43;3.93;;;6.30;99.90;;;7.03;100.00;98075.19;5159877;28;20230;-63
2023/01/02 04:17:26;;;;;;;3.50;3.20;;;6.30;99.90;;;6.92;100.00;98070.19;5156871;28;20282;-63
2023/01/02 04:20:05;;;;;;;4.13;3.53;;;6.20;99.90;;;6.88;100.00;98075.84;5157878;28;20731;-63
2023/01/02 04:22:48;;;;;;;4.23;3.83;;;6.20;99.90;;;6.89;100.00;98077.59;5159088;28;20199;-62
2023/01/02 04:25:25;;;;;;;3.83;3.50;;;6.20;99.90;;;6.95;100.00;98074.63;5161168;28;20321;-64
2023/01/02 04:28:03;;;;;;;4.07;3.77;;;6.30;99.90;;;6.86;100.00;98073.94;5159757;28;20655;-62
2023/01/02 04:30:42;;;;;;;3.73;3.33;;;6.30;99.90;;;6.91;100.00;98075.19;5155216;28;20659;-63
2023/01/02 04:33:17;;;;;;;4.40;3.50;;;6.30;99.90;;;6.93;100.00;98068.56;5156604;28;20702;-63
2023/01/02 04:35:50;;;;;;;4.53;3.17;;;6.30;99.90;;;6.97;100.00;98065.47;5150011;28;20286;-63
2023/01/02 04:38:25;;;;;;;3.50;3.20;;;6.40;99.90;;;7.00;100.00;98058.94;5160257;28;20294;-63
2023/01/02 04:40:58;;;;;;;3.23;2.93;;;6.40;99.90;;;7.05;100.00;98054.22;5154243;28;20194;-63
2023/01/02 04:43:31;;;;;;;4.30;3.70;;;6.40;99.90;;;7.06;100.00;98055.97;5155337;28;20223;-63
2023/01/02 04:46:04;;;;;;;3.00;2.80;;;6.40;99.90;;;7.08;100.00;98051.91;5158643;28;20199;-63
2023/01/02 04:48:38;;;;;;;3.13;2.83;;;6.40;99.90;;;7.05;100.00;98053.34;5152641;28;20207;-63
2023/01/02 04:51:11;;;;;;;4.10;3.13;;;6.30;99.90;;;7.04;100.00;98046.47;5152131;28;20293;-62
2023/01/02 04:53:47;;;;;;;3.80;3.50;;;6.30;99.90;;;7.00;100.00;98045.38;5153974;28;20297;-63
2023/01/02 04:56:21;;;;;;;3.50;3.20;;;6.30;99.90;;;6.97;100.00;98056.19;5156218;28;20261;-62
2023/01/02 04:58:54;;;;;;;4.20;3.40;;;6.20;99.90;;;6.96;100.00;98056.09;5154064;28;20203;-63
2023/01/02 05:01:27;;;;;;;3.20;2.83;;;6.30;99.90;;;6.89;100.00;98056.38;5152790;28;20234;-64
2023/01/02 05:04:00;;;;;;;4.77;3.30;;;6.20;99.90;;;6.85;100.00;98055.28;5154911;28;20236;-62
2023/01/02 05:06:34;;;;;;;3.50;3.20;;;6.30;99.90;;;7.02;100.00;98056.53;5153575;28;20584;-63
2023/01/02 05:09:08;;;;;;;3.60;3.30;;;6.40;99.90;;;7.05;100.00;98046.59;5156153;28;20242;-63
2023/01/02 05:11:42;;;;;;;5.40;4.10;;;6.40;99.90;;;7.05;100.00;98059.31;5155672;28;20225;-63
2023/01/02 05:14:15;;;;;;;3.70;3.40;;;6.40;99.90;;;7.11;100.00;98049.59;5154838;28;20322;-63
2023/01/02 05:16:48;;;;;;;3.57;3.30;;;6.50;99.90;;;7.15;100.00;98046.50;5154407;28;20246;-64
2023/01/02 05:19:21;;;;;;;3.70;3.50;;;6.50;99.90;;;7.20;100.00;98049.38;5156239;28;20236;-63
2023/01/02 05:24:46;;;;;;;3.50;3.30;;;6.60;99.90;;;7.28;100.00;98053.34;5158831;28;20235;-63
2023/01/02 05:27:19;;;;;;;3.03;2.83;;;6.50;99.90;;;7.29;100.00;98060.19;5158596;28;20634;-63
2023/01/02 05:29:52;;;;;;;4.17;3.37;;;6.50;99.90;;;7.20;100.00;98060.41;5159326;28;20294;-64
2023/01/02 05:32:27;;;;;;;3.80;3.50;;;6.50;99.90;;;7.20;100.00;98055.34;5159293;28;20281;-64
2023/01/02 05:35:00;;;;;;;3.70;3.40;;;6.50;99.90;;;7.13;100.00;98050.59;5158573;28;20308;-63
2023/01/02 05:37:33;;;;;;;3.73;3.33;;;6.40;99.90;;;7.11;100.00;98052.13;5159696;28;20211;-63
2023/01/02 05:40:09;;;;;;;3.40;3.20;;;6.40;99.90;;;7.09;100.00;98061.28;5158513;28;20258;-63
2023/01/02 05:42:43;;;;;;;3.60;3.30;;;6.40;99.90;;;7.15;100.00;98055.75;5156258;28;20214;-62
2023/01/02 05:45:16;;;;;;;4.67;3.90;;;6.40;99.90;;;7.19;100.00;98052.69;5160340;28;20699;-63
2023/01/02 05:47:49;;;;;;;3.87;3.23;;;6.40;99.90;;;7.10;100.00;98058.00;5159638;28;20286;-63
2023/01/02 05:50:22;;;;;;;4.07;3.67;;;6.30;99.90;;;7.04;100.00;98054.09;5159440;28;20314;-62
2023/01/02 05:52:56;;;;;;;3.63;3.33;;;6.30;99.90;;;7.00;100.00;98056.41;5152612;28;20237;-63
2023/01/02 05:55:30;;;;;;;3.37;3.07;;;6.20;99.90;;;7.00;100.00;98053.00;5155398;28;20209;-63
2023/01/02 05:58:03;;;;;;;5.50;3.70;;;6.20;99.90;;;6.97;100.00;98058.72;5158293;28;20202;-65
2023/01/02 06:00:36;;;;;;;5.33;3.50;;;6.20;99.90;;;6.88;100.00;98064.78;5155727;28;20229;-63
2023/01/02 06:03:09;;;;;;;4.43;3.50;;;6.20;99.90;;;6.92;100.00;98066.78;5158980;28;20337;-62
2023/01/02 06:05:42;;;;;;;4.13;3.83;;;6.20;99.90;;;6.91;100.00;98060.81;5158344;28;20261;-65
2023/01/02 06:08:16;;;;;;;3.93;3.63;;;6.20;99.90;;;6.90;100.00;98063.25;5160683;28;20281;-63
2023/01/02 06:10:51;;;;;;;4.33;4.00;;;6.20;99.90;;;6.89;100.00;98058.94;5156727;28;20282;-64
2023/01/02 06:13:24;;;;;;;6.57;5.10;;;6.20;99.90;;;6.91;100.00;98062.47;5156387;28;20324;-65
2023/01/02 06:15:59;;;;;;;8.47;6.17;;;6.20;99.90;;;6.88;100.00;98058.06;5154971;28;20238;-63
2023/01/02 06:18:35;;;;;;;6.80;5.60;;;6.20;99.90;;;6.94;100.00;98062.69;5157952;28;20258;-65
2023/01/02 06:21:11;;;;;;;5.40;4.90;;;6.10;99.90;;;6.90;100.00;98066.69;5155443;28;20243;-63
2023/01/02 06:23:45;;;;;;;6.33;4.20;;;6.10;99.90;;;6.87;100.00;98066.47;5158611;28;20420;-63
2023/01/02 06:26:20;;;;;;;4.23;3.93;;;6.10;99.90;;;6.86;100.00;98071.41;5157412;28;20219;-64
2023/01/02 06:28:56;;;;;;;4.50;4.10;;;6.10;99.90;;;6.84;100.00;98063.69;5154435;28;20289;-64
2023/01/02 06:31:32;;;;;;;4.83;4.47;;;6.10;99.90;;;6.84;100.00;98063.69;5156297;28;20203;-62
2023/01/02 06:34:05;;;;;;;3.97;3.57;;;6.00;99.90;;;6.77;100.00;98074.16;5156488;28;20230;-63
2023/01/02 06:36:38;;;;;;;4.70;4.33;;;6.00;99.90;;;6.74;100.00;98062.09;5157980;28;20208;-63
2023/01/02 06:39:11;;;;;;;5.10;4.60;;;6.00;99.90;;;6.76;100.00;98070.72;5156384;28;20667;-64
2023/01/02 06:41:46;;;;;;;4.83;4.33;;;6.00;99.90;;;6.75;100.00;98068.06;5158929;28;20294;-64
2023/01/02 06:44:19;;;;;;;4.30;4.00;;;6.00;99.90;;;6.77;100.00;98057.25;5157692;28;20349;-63
2023/01/02 06:46:52;;;;;;;4.80;3.80;;;6.00;99.90;;;6.75;100.00;98063.88;5155958;28;20298;-62
2023/01/02 06:49:25;;;;;;;4.80;4.30;;;6.00;99.90;;;6.75;100.00;98068.97;5157305;28;20207;-63
2023/01/02 06:51:58;;;;;;;4.43;4.13;;;6.00;99.90;;;6.70;100.00;98074.47;5156694;28;20203;-63
2023/01/02 06:54:32;;;;;;;4.30;3.90;;;6.00;99.90;;;6.70;100.00;98080.44;5156259;28;20227;-64
2023/01/02 06:57:07;;;;;;;4.30;3.90;;;6.00;99.90;;;6.66;100.00;98078.41;5156315;28;20234;-63
2023/01/02 06:59:40;;;;;;;3.97;3.67;;;6.00;99.90;;;6.68;100.00;98087.03;5158023;28;20299;-62
2023/01/02 07:02:14;;;;;;;4.90;4.33;;;6.00;99.90;;;6.64;100.00;98087.59;5156113;28;20205;-62
2023/01/02 07:04:47;;;;;;;4.80;4.40;;;5.90;99.90;;;6.69;100.00;98093.88;5154319;28;20655;-63
2023/01/02 07:07:20;;;;;;;6.17;4.50;;;5.90;99.90;;;6.63;100.00;98088.34;5152059;28;20887;-63
2023/01/02 07:09:53;;;;;;;6.60;6.00;;;5.90;99.90;;;6.78;100.00;98091.16;5157966;28;20239;-62
2023/01/02 07:12:28;;;;;;;6.77;6.10;;;6.00;99.90;;;6.73;100.00;98083.19;5156526;28;20262;-63
2023/01/02 07:15:01;;;;;;;6.70;6.10;;;5.90;99.90;;;6.53;100.00;98083.34;5151876;28;20280;-63
2023/01/02 07:17:34;;;;;;;7.83;7.13;;;5.90;99.90;;;6.52;100.00;98090.09;5157070;28;20281;-63
2023/01/02 07:20:08;;;;;;;10.13;7.73;;;5.90;99.90;;;6.45;100.00;98099.66;5155254;28;20204;-63
2023/01/02 07:22:41;;;;;;;7.90;7.20;;;5.80;99.90;;;6.48;100.00;98116.00;5156415;28;20203;-63
2023/01/02 07:25:15;;;;;;;6.93;6.27;;;5.80;99.90;;;6.42;100.00;98112.09;5152555;28;20583;-62
2023/01/02 07:27:49;;;;;;;6.80;6.20;;;5.80;99.90;;;6.42;100.00;98112.09;5154704;28;20208;-64
2023/01/02 07:30:22;;;;;;;30.17;20.80;;;5.80;99.90;;;6.43;100.00;98109.66;5157320;28;20289;-62
2023/01/02 07:32:56;;;;;;;15.87;11.90;;;5.80;99.90;;;6.47;100.00;98115.91;5157981;28;20227;-63
2023/01/02 07:35:29;;;;;;;11.57;10.37;;;5.80;99.90;;;6.56;100.00;98115.72;5155657;28;20279;-63
2023/01/02 07:38:02;;;;;;;7.70;7.00;;;5.90;99.90;;;6.68;100.00;98122.59;5151117;28;20770;-63
2023/01/02 07:40:35;;;;;;;7.00;6.27;;;5.80;99.90;;;6.67;100.00;98125.91;5150141;28;20231;-65
2023/01/02 07:43:10;;;;;;;7.07;6.47;;;5.90;99.90;;;6.60;100.00;98126.19;5152161;28;20223;-63
2023/01/02 07:45:43;;;;;;;7.50;6.80;;;5.90;99.90;;;6.51;100.00;98122.97;5155405;28;20226;-64
2023/01/02 07:48:22;;;;;;;8.43;7.40;;;5.80;99.90;;;6.53;100.00;98131.59;5152727;28;20207;-63
2023/01/02 07:51:00;;;;;;;7.57;6.90;;;5.90;99.90;;;6.58;100.00;98134.47;5156237;28;20574;-63
2023/01/02 07:53:34;;;;;;;9.77;6.80;;;5.90;99.90;;;6.57;100.00;98141.22;5152565;28;20315;-64
2023/01/02 07:56:08;;;;;;;6.40;5.90;;;5.90;99.90;;;6.58;100.00;98148.06;5154628;28;20277;-63
2023/01/02 07:58:43;;;;;;;6.23;5.73;;;5.80;99.90;;;6.63;100.00;98148.41;5144505;28;20211;-62
2023/01/02 08:01:16;;;;;;;6.60;6.10;;;5.80;99.90;;;6.58;100.00;98160.78;5150758;28;20207;-62
2023/01/02 08:03:49;;;;;;;6.20;5.70;;;5.80;99.90;;;6.60;100.00;98169.38;5156057;28;20234;-63
2023/01/02 08:06:23;;;;;;;6.80;5.87;;;5.80;99.90;;;6.60;100.00;98174.44;5155264;28;20246;-64
2023/01/02 08:08:56;;;;;;;5.80;5.30;;;5.80;99.90;;;6.61;100.00;98175.34;5159161;28;20254;-63
2023/01/02 08:11:29;;;;;;;5.60;5.10;;;5.90;99.90;;;6.65;100.00;98180.78;5154537;28;20199;-62
2023/01/02 08:14:04;;;;;;;6.40;5.90;;;5.90;99.90;;;6.68;100.00;98188.63;5157907;28;20321;-62
2023/01/02 08:16:37;;;;;;;5.60;5.00;;;5.90;99.90;;;6.68;100.00;98186.09;5147508;28;20281;-65
2023/01/02 08:19:10;;;;;;;6.20;5.70;;;5.90;99.90;;;6.74;100.00;98186.56;5155853;28;20712;-62
2023/01/02 08:21:43;;;;;;;6.33;5.67;;;6.00;99.90;;;6.73;100.00;98177.19;5157858;28;20591;-62
2023/01/02 08:24:16;;;;;;;5.83;5.33;;;6.00;99.90;;;6.75;100.00;98174.75;5157989;28;20231;-64
2023/01/02 08:26:49;;;;;;;6.07;5.50;;;6.00;99.90;;;6.76;100.00;98174.88;5153132;28;20731;-63
2023/01/02 08:29:24;;;;;;;6.20;5.80;;;6.10;99.90;;;6.83;100.00;98182.97;5156484;28;20709;-64
2023/01/02 08:31:58;;;;;;;6.10;5.57;;;6.10;99.90;;;6.88;100.00;98186.75;5156471;28;20737;-64
2023/01/02 08:34:31;;;;;;;5.90;5.30;;;6.20;99.90;;;6.88;100.00;98186.75;5155588;28;20372;-63
2023/01/02 08:37:04;;;;;;;5.97;5.47;;;6.20;99.90;;;6.95;100.00;98197.50;5156553;28;20262;-64
2023/01/02 08:39:37;;;;;;;5.00;4.57;;;6.30;99.90;;;7.00;100.00;98193.63;5158427;28;20602;-63
2023/01/02 08:42:11;;;;;;;5.57;5.17;;;6.30;99.90;;;7.06;100.00;98198.28;5155395;28;20207;-63
2023/01/02 08:44:45;;;;;;;7.20;6.57;;;6.30;99.90;;;7.10;100.00;98199.44;5153800;28;20336;-63
2023/01/02 08:47:18;;;;;;;6.47;5.97;;;6.30;99.90;;;7.08;100.00;98201.84;5155654;28;20231;-64
2023/01/02 08:49:51;;;;;;;8.70;7.80;;;6.30;99.90;;;6.94;100.00;98198.25;5158566;28;20679;-63
2023/01/02 08:52:24;;;;;;;7.53;6.73;;;6.30;99.90;;;6.98;100.00;98190.13;5154582;28;20290;-64
2023/01/02 08:54:59;;;;;;;6.27;5.83;;;6.30;99.90;;;7.07;100.00;98189.94;5155841;28;20646;-63
2023/01/02 08:57:33;;;;;;;6.83;6.03;;;6.40;99.90;;;7.22;100.00;98191.06;5154420;28;21644;-64
2023/01/02 09:00:09;;;;;;;7.23;6.47;;;6.50;99.90;;;7.31;100.00;98205.25;5156935;28;20234;-64
2023/01/02 09:02:42;;;;;;;5.97;5.43;;;6.60;99.90;;;7.44;100.00;98207.94;5156542;28;20218;-63
2023/01/02 09:05:16;;;;;;;6.40;5.80;;;6.80;99.90;;;7.57;100.00;98210.59;5156029;28;20211;-64
2023/01/02 09:07:49;;;;;;;7.67;7.00;;;6.90;99.90;;;7.65;100.00;98199.34;5154494;28;20314;-63
2023/01/02 09:10:22;;;;;;;8.63;7.83;;;7.00;99.90;;;7.81;100.00;98211.53;5156333;28;20257;-63
2023/01/02 09:12:57;;;;;;;9.10;8.20;;;7.10;99.90;;;7.87;100.00;98213.66;5154856;28;20265;-64
2023/01/02 09:15:32;;;;;;;8.33;7.53;;;7.00;99.90;;;7.80;100.00;98201.25;5159132;28;20261;-63
2023/01/02 09:18:05;;;;;;;7.70;6.93;;;7.00;99.90;;;7.75;100.00;98205.09;5155843;28;20203;-63
2023/01/02 09:20:40;;;;;;;7.20;6.60;;;7.00;99.90;;;7.85;100.00;98212.66;5158281;28;20203;-63
2023/01/02 09:23:13;;;;;;;7.03;6.43;;;7.10;99.90;;;7.95;100.00;98212.53;5155353;28;20226;-63
2023/01/02 09:25:46;;;;;;;7.23;6.53;;;7.20;99.90;;;8.09;100.00;98211.88;5154406;28;20318;-63
2023/01/02 09:28:19;;;;;;;6.00;5.60;;;7.40;99.90;;;8.13;100.00;98225.72;5153672;28;20210;-63
2023/01/02 09:30:54;;;;;;;5.65;5.15;;;7.40;99.90;;;8.10;100.00;98226.38;5153671;28;20254;-63
2023/01/02 09:33:27;;;;;;;5.30;4.90;;;7.50;99.90;;;8.18;100.00;98219.28;5156709;28;20226;-64
2023/01/02 09:36:01;;;;;;;6.70;6.20;;;7.60;99.90;;;8.29;100.00;98225.16;5157958;28;20203;-63
2023/01/02 09:38:35;;;;;;;8.43;7.63;;;7.60;99.90;;;8.50;100.00;98224.19;5155909;28;20206;-63
2023/01/02 09:41:27;;;;;;;8.40;7.72;;;7.80;99.90;;;8.38;100.00;98225.78;5156497;28;20307;-64
2023/01/02 09:44:06;;;;;;;7.88;7.25;;;7.70;99.90;;;8.35;100.00;98230.69;5156480;28;20242;-64
2023/01/02 09:46:48;;;;;;;8.33;7.47;;;7.70;99.90;;;8.39;100.00;98236.94;5156503;28;20227;-64
2023/01/02 09:49:24;;;;;;;8.30;7.60;;;7.70;99.90;;;8.37;100.00;98246.09;5153678;28;20199;-64
2023/01/02 09:51:58;;;;;;;7.65;6.95;;;7.60;99.90;;;8.44;100.00;98248.31;5153262;28;20207;-63
2023/01/02 09:54:33;;;;;;;8.48;7.57;;;7.60;99.90;;;8.39;100.00;98245.47;5152411;28;20229;-64
2023/01/02 09:57:27;;;;;;;7.60;7.00;;;7.70;99.90;;;8.43;100.00;98242.34;5155342;28;20195;-64
2023/01/02 10:00:05;;;;;;;7.15;6.45;;;7.70;99.90;;;8.49;100.00;98242.75;5154361;28;20205;-63
2023/01/02 10:03:01;;;;;;;7.00;6.30;;;7.80;99.90;;;8.54;100.00;98256.72;5156056;28;20215;-63
2023/01/02 10:06:06;;;;;;;7.45;6.38;;;7.80;99.90;;;8.59;100.00;98248.53;5158230;28;20690;-64
2023/01/02 10:08:59;;;;;;;7.53;6.93;;;7.80;99.90;;;8.69;100.00;98239.09;5158181;28;20262;-64
2023/01/02 10:11:47;;;;;;;8.85;7.95;;;7.90;99.90;;;8.76;100.00;98242.97;5159022;28;20203;-64
2023/01/02 10:14:32;;;;;;;9.43;8.57;;;8.00;99.90;;;8.89;100.00;98250.66;5162266;28;20285;-64
2023/01/02 10:17:16;;;;;;;7.95;7.20;;;8.00;99.90;;;8.91;100.00;98249.13;5162176;28;20214;-64
2023/01/02 10:19:56;;;;;;;8.27;7.53;;;8.10;99.90;;;8.91;100.00;98256.78;5164131;28;20202;-64
2023/01/02 10:22:35;;;;;;;7.07;6.47;;;8.10;99.90;;;8.90;100.00;98259.19;5161216;28;20653;-64
2023/01/02 10:25:14;;;;;;;8.85;7.28;;;8.10;99.90;;;8.90;100.00;98255.00;5162303;28;20649;-64
2023/01/02 10:27:54;;;;;;;8.18;7.38;;;8.10;99.90;;;8.93;100.00;98260.31;5164289;28;20222;-64
2023/01/02 10:30:33;;;;;;;8.32;7.47;;;8.20;99.90;;;9.02;100.00;98247.31;5159915;28;20191;-64
2023/01/02 10:33:16;;;;;;;8.25;7.63;;;8.30;99.90;;;9.08;100.00;98245.19;5164299;28;20715;-64
2023/01/02 10:35:55;;;;;;;7.88;7.07;;;8.40;99.90;;;9.18;100.00;98245.03;5163069;28;20203;-64
2023/01/02 10:38:36;;;;;;;7.95;7.25;;;8.50;99.90;;;9.33;100.00;98247.75;5159396;28;20199;-64
2023/01/02 10:41:09;;;;;;;9.73;8.75;;;8.60;99.90;;;9.52;100.00;98257.53;5162930;28;20207;-64
2023/01/02 10:43:42;;;;;;;9.30;8.40;;;8.80;99.90;;;9.69;100.00;98253.56;5164419;28;20318;-64
2023/01/02 10:46:15;;;;;;;8.77;7.97;;;8.80;99.90;;;9.64;100.00;98248.16;5164381;28;20242;-64
2023/01/02 10:48:49;;;;;;;7.72;7.10;;;8.90;99.90;;;9.66;100.00;98250.81;5161345;28;20257;-64
2023/01/02 10:51:26;;;;;;;7.70;7.10;;;9.00;99.90;;;9.70;100.00;98243.47;5163234;28;20210;-64
2023/01/02 10:54:02;;;;;;;6.97;6.47;;;9.00;99.90;;;9.77;100.00;98242.19;5164397;28;20265;-64
2023/01/02 10:56:38;;;;;;;7.88;7.15;;;9.10;99.90;;;9.88;100.00;98243.78;5164374;28;20222;-64
2023/01/02 10:59:21;;;;;;;7.10;6.40;;;9.20;99.90;;;10.02;100.00;98243.81;5163893;28;20206;-64
2023/01/02 11:01:57;;;;;;;7.07;6.47;;;9.30;99.90;;;10.13;100.00;98235.19;5163900;28;20625;-64
2023/01/02 11:04:30;;;;;;;6.97;6.10;;;9.50;99.90;;;10.31;100.00;98244.06;5162310;28;20250;-64
2023/01/02 11:07:05;;;;;;;6.82;6.13;;;9.60;99.90;;;10.49;100.00;98238.34;5163827;28;20686;-64
2023/01/02 11:09:39;;;;;;;13.25;11.93;;;9.80;99.90;;;10.65;100.00;98245.31;5163969;28;20645;-64